sensor_id;sensor_type;location;lat;lon;timestamp;P1;durP1;ratioP1;P2;durP2;ratioP2
81544;SDS011;70990;50.618;7.346;2024-03-06T00:01:03;12.57;;;5.13;;
81544;SDS011;70990;50.618;7.346;2024-03-06T00:03:30;11.15;;;5.10;;
81544;SDS011;70990;50.618;7.346;2024-03-06T00:05:56;10.75;;;4.38;;
81544;SDS011;70990;50.618;7.346;2024-03-06T00:08:23;10.57;;;4.93;;
81544;SDS011;70990;50.618;7.346;2024-03-06T00:10:49;11.77;;;5.20;;
81544;SDS011;70990;50.618;7.346;2024-03-06T00:13:16;8.10;;;4.00;;
81544;SDS011;70990;50.618;7.346;2024-03-06T00:15:42;7.93;;;3.33;;
81544;SDS011;70990;50.618;7.346;2024-03-06T00:18:09;10.32;;;4.15;;
81544;SDS011;70990;50.618;7.346;2024-03-06T00:20:35;10.88;;;4.63;;
81544;SDS011;70990;50.618;7.346;2024-03-06T00:23:05;13.45;;;5.50;;
81544;SDS011;70990;50.618;7.346;2024-03-06T00:25:31;10.10;;;4.82;;
81544;SDS011;70990;50.618;7.346;2024-03-06T00:27:58;10.82;;;4.03;;
81544;SDS011;70990;50.618;7.346;2024-03-06T00:30:24;9.93;;;3.90;;
81544;SDS011;70990;50.618;7.346;2024-03-06T00:32:51;20.42;;;5.20;;
81544;SDS011;70990;50.618;7.346;2024-03-06T00:35:19;11.13;;;3.17;;
81544;SDS011;70990;50.618;7.346;2024-03-06T00:37:46;6.93;;;2.22;;
81544;SDS011;70990;50.618;7.346;2024-03-06T00:40:12;6.18;;;2.03;;
81544;SDS011;70990;50.618;7.346;2024-03-06T00:42:39;5.75;;;2.03;;
81544;SDS011;70990;50.618;7.346;2024-03-06T00:45:06;7.20;;;2.35;;
81544;SDS011;70990;50.618;7.346;2024-03-06T00:47:33;6.10;;;2.75;;
81544;SDS011;70990;50.618;7.346;2024-03-06T00:50:00;6.60;;;2.65;;
81544;SDS011;70990;50.618;7.346;2024-03-06T00:52:27;7.50;;;3.17;;
81544;SDS011;70990;50.618;7.346;2024-03-06T00:54:53;9.02;;;2.95;;
81544;SDS011;70990;50.618;7.346;2024-03-06T00:57:20;10.68;;;3.55;;
81544;SDS011;70990;50.618;7.346;2024-03-06T00:59:46;9.40;;;2.92;;
81544;SDS011;70990;50.618;7.346;2024-03-06T01:02:13;11.25;;;3.92;;
81544;SDS011;70990;50.618;7.346;2024-03-06T01:04:39;22.27;;;6.65;;
81544;SDS011;70990;50.618;7.346;2024-03-06T01:07:06;15.85;;;5.80;;
81544;SDS011;70990;50.618;7.346;2024-03-06T01:09:33;17.48;;;6.82;;
81544;SDS011;70990;50.618;7.346;2024-03-06T01:11:59;17.90;;;6.57;;
81544;SDS011;70990;50.618;7.346;2024-03-06T01:14:26;14.73;;;6.05;;
81544;SDS011;70990;50.618;7.346;2024-03-06T01:16:52;15.02;;;5.60;;
81544;SDS011;70990;50.618;7.346;2024-03-06T01:19:19;8.38;;;2.83;;
81544;SDS011;70990;50.618;7.346;2024-03-06T01:21:45;8.13;;;3.20;;
81544;SDS011;70990;50.618;7.346;2024-03-06T01:24:12;5.60;;;2.35;;
81544;SDS011;70990;50.618;7.346;2024-03-06T01:26:38;6.88;;;2.63;;
81544;SDS011;70990;50.618;7.346;2024-03-06T01:29:05;6.45;;;2.40;;
81544;SDS011;70990;50.618;7.346;2024-03-06T01:31:32;7.07;;;2.42;;
81544;SDS011;70990;50.618;7.346;2024-03-06T01:33:58;5.45;;;2.28;;
81544;SDS011;70990;50.618;7.346;2024-03-06T01:36:25;5.32;;;2.50;;
81544;SDS011;70990;50.618;7.346;2024-03-06T01:38:51;7.32;;;2.40;;
81544;SDS011;70990;50.618;7.346;2024-03-06T01:41:18;7.63;;;2.88;;
81544;SDS011;70990;50.618;7.346;2024-03-06T01:43:44;8.13;;;3.50;;
81544;SDS011;70990;50.618;7.346;2024-03-06T01:46:11;9.10;;;2.97;;
81544;SDS011;70990;50.618;7.346;2024-03-06T01:48:38;10.27;;;3.72;;
81544;SDS011;70990;50.618;7.346;2024-03-06T01:51:05;8.07;;;3.58;;
81544;SDS011;70990;50.618;7.346;2024-03-06T01:53:32;92.68;;;7.88;;
81544;SDS011;70990;50.618;7.346;2024-03-06T01:56:00;14.05;;;4.22;;
81544;SDS011;70990;50.618;7.346;2024-03-06T01:58:28;9.70;;;3.30;;
81544;SDS011;70990;50.618;7.346;2024-03-06T02:00:54;29.77;;;4.32;;
81544;SDS011;70990;50.618;7.346;2024-03-06T02:03:21;35.50;;;5.30;;
81544;SDS011;70990;50.618;7.346;2024-03-06T02:05:48;40.97;;;4.68;;
81544;SDS011;70990;50.618;7.346;2024-03-06T02:08:17;41.45;;;4.55;;
81544;SDS011;70990;50.618;7.346;2024-03-06T02:10:44;47.05;;;5.07;;
81544;SDS011;70990;50.618;7.346;2024-03-06T02:13:11;7.90;;;2.50;;
81544;SDS011;70990;50.618;7.346;2024-03-06T02:15:39;6.95;;;2.33;;
81544;SDS011;70990;50.618;7.346;2024-03-06T02:18:05;7.07;;;2.88;;
81544;SDS011;70990;50.618;7.346;2024-03-06T02:20:33;9.63;;;3.30;;
81544;SDS011;70990;50.618;7.346;2024-03-06T02:22:59;6.13;;;2.50;;
81544;SDS011;70990;50.618;7.346;2024-03-06T02:25:26;5.18;;;1.88;;
81544;SDS011;70990;50.618;7.346;2024-03-06T02:27:53;5.80;;;1.98;;
81544;SDS011;70990;50.618;7.346;2024-03-06T02:30:19;4.82;;;1.67;;
81544;SDS011;70990;50.618;7.346;2024-03-06T02:32:50;7.53;;;2.42;;
81544;SDS011;70990;50.618;7.346;2024-03-06T02:35:18;7.25;;;2.05;;
81544;SDS011;70990;50.618;7.346;2024-03-06T02:37:44;5.65;;;1.95;;
81544;SDS011;70990;50.618;7.346;2024-03-06T02:40:11;7.32;;;1.52;;
81544;SDS011;70990;50.618;7.346;2024-03-06T02:42:38;7.10;;;1.67;;
81544;SDS011;70990;50.618;7.346;2024-03-06T02:45:05;5.80;;;1.67;;
81544;SDS011;70990;50.618;7.346;2024-03-06T02:47:32;6.18;;;1.65;;
81544;SDS011;70990;50.618;7.346;2024-03-06T02:49:59;5.47;;;1.88;;
81544;SDS011;70990;50.618;7.346;2024-03-06T02:52:26;6.80;;;2.00;;
81544;SDS011;70990;50.618;7.346;2024-03-06T02:54:52;5.93;;;2.05;;
81544;SDS011;70990;50.618;7.346;2024-03-06T02:57:19;4.82;;;1.55;;
81544;SDS011;70990;50.618;7.346;2024-03-06T02:59:46;5.55;;;2.17;;
81544;SDS011;70990;50.618;7.346;2024-03-06T03:02:13;4.60;;;1.77;;
81544;SDS011;70990;50.618;7.346;2024-03-06T03:04:40;6.70;;;2.10;;
81544;SDS011;70990;50.618;7.346;2024-03-06T03:07:06;3.42;;;1.35;;
81544;SDS011;70990;50.618;7.346;2024-03-06T03:09:33;4.45;;;1.40;;
81544;SDS011;70990;50.618;7.346;2024-03-06T03:12:01;3.17;;;1.20;;
81544;SDS011;70990;50.618;7.346;2024-03-06T03:14:28;4.15;;;1.33;;
81544;SDS011;70990;50.618;7.346;2024-03-06T03:16:54;3.25;;;1.60;;
81544;SDS011;70990;50.618;7.346;2024-03-06T03:19:21;4.47;;;1.33;;
81544;SDS011;70990;50.618;7.346;2024-03-06T03:21:47;4.25;;;1.90;;
81544;SDS011;70990;50.618;7.346;2024-03-06T03:24:14;5.13;;;1.73;;
81544;SDS011;70990;50.618;7.346;2024-03-06T03:26:40;6.15;;;1.95;;
81544;SDS011;70990;50.618;7.346;2024-03-06T03:29:07;6.53;;;2.67;;
81544;SDS011;70990;50.618;7.346;2024-03-06T03:31:33;6.55;;;2.53;;
81544;SDS011;70990;50.618;7.346;2024-03-06T03:34:00;6.97;;;2.10;;
81544;SDS011;70990;50.618;7.346;2024-03-06T03:36:26;6.07;;;2.70;;
81544;SDS011;70990;50.618;7.346;2024-03-06T03:38:53;7.32;;;3.05;;
81544;SDS011;70990;50.618;7.346;2024-03-06T03:41:19;8.43;;;3.20;;
81544;SDS011;70990;50.618;7.346;2024-03-06T03:43:46;8.60;;;3.58;;
81544;SDS011;70990;50.618;7.346;2024-03-06T03:46:12;7.85;;;3.20;;
81544;SDS011;70990;50.618;7.346;2024-03-06T03:48:39;6.38;;;2.72;;
81544;SDS011;70990;50.618;7.346;2024-03-06T03:51:06;6.72;;;2.28;;
81544;SDS011;70990;50.618;7.346;2024-03-06T03:53:33;6.35;;;2.25;;
81544;SDS011;70990;50.618;7.346;2024-03-06T03:56:00;22.63;;;3.60;;
81544;SDS011;70990;50.618;7.346;2024-03-06T03:58:26;36.03;;;5.32;;
81544;SDS011;70990;50.618;7.346;2024-03-06T04:00:53;23.58;;;4.38;;
81544;SDS011;70990;50.618;7.346;2024-03-06T04:03:20;25.58;;;4.10;;
81544;SDS011;70990;50.618;7.346;2024-03-06T04:05:46;6.82;;;1.50;;
81544;SDS011;70990;50.618;7.346;2024-03-06T04:08:13;5.07;;;1.90;;
81544;SDS011;70990;50.618;7.346;2024-03-06T04:10:41;5.60;;;2.13;;
81544;SDS011;70990;50.618;7.346;2024-03-06T04:13:08;6.55;;;2.40;;
81544;SDS011;70990;50.618;7.346;2024-03-06T04:15:35;6.53;;;2.30;;
81544;SDS011;70990;50.618;7.346;2024-03-06T04:18:02;6.47;;;2.28;;
81544;SDS011;70990;50.618;7.346;2024-03-06T04:20:28;4.97;;;1.83;;
81544;SDS011;70990;50.618;7.346;2024-03-06T04:22:55;5.05;;;1.77;;
81544;SDS011;70990;50.618;7.346;2024-03-06T04:25:22;4.13;;;1.55;;
81544;SDS011;70990;50.618;7.346;2024-03-06T04:27:49;12.98;;;2.63;;
81544;SDS011;70990;50.618;7.346;2024-03-06T04:30:16;36.58;;;4.07;;
81544;SDS011;70990;50.618;7.346;2024-03-06T04:32:43;34.47;;;3.40;;
81544;SDS011;70990;50.618;7.346;2024-03-06T04:35:09;39.75;;;3.90;;
81544;SDS011;70990;50.618;7.346;2024-03-06T04:37:36;47.08;;;3.97;;
81544;SDS011;70990;50.618;7.346;2024-03-06T04:40:03;28.73;;;3.28;;
81544;SDS011;70990;50.618;7.346;2024-03-06T04:42:30;21.02;;;2.72;;
81544;SDS011;70990;50.618;7.346;2024-03-06T04:44:56;27.45;;;2.35;;
81544;SDS011;70990;50.618;7.346;2024-03-06T04:47:23;27.83;;;2.00;;
81544;SDS011;70990;50.618;7.346;2024-03-06T04:49:54;9.73;;;1.30;;
81544;SDS011;70990;50.618;7.346;2024-03-06T04:52:20;4.47;;;1.83;;
81544;SDS011;70990;50.618;7.346;2024-03-06T04:54:47;3.90;;;1.50;;
81544;SDS011;70990;50.618;7.346;2024-03-06T04:57:13;3.97;;;1.65;;
81544;SDS011;70990;50.618;7.346;2024-03-06T04:59:40;5.53;;;1.75;;
81544;SDS011;70990;50.618;7.346;2024-03-06T05:02:06;4.28;;;1.58;;
81544;SDS011;70990;50.618;7.346;2024-03-06T05:04:33;5.45;;;1.83;;
81544;SDS011;70990;50.618;7.346;2024-03-06T05:07:17;3.63;;;1.45;;
81544;SDS011;70990;50.618;7.346;2024-03-06T05:10:01;5.43;;;1.83;;
81544;SDS011;70990;50.618;7.346;2024-03-06T05:12:46;4.43;;;1.52;;
81544;SDS011;70990;50.618;7.346;2024-03-06T05:15:29;3.88;;;1.80;;
81544;SDS011;70990;50.618;7.346;2024-03-06T05:18:13;5.43;;;2.65;;
81544;SDS011;70990;50.618;7.346;2024-03-06T05:20:57;5.45;;;2.22;;
81544;SDS011;70990;50.618;7.346;2024-03-06T05:23:41;6.38;;;2.53;;
81544;SDS011;70990;50.618;7.346;2024-03-06T05:26:25;5.32;;;2.13;;
81544;SDS011;70990;50.618;7.346;2024-03-06T05:29:09;5.40;;;2.08;;
81544;SDS011;70990;50.618;7.346;2024-03-06T05:31:53;5.13;;;2.20;;
81544;SDS011;70990;50.618;7.346;2024-03-06T05:34:37;3.55;;;1.50;;
81544;SDS011;70990;50.618;7.346;2024-03-06T05:37:21;4.25;;;1.90;;
81544;SDS011;70990;50.618;7.346;2024-03-06T05:40:05;3.72;;;1.27;;
81544;SDS011;70990;50.618;7.346;2024-03-06T05:42:50;3.65;;;1.30;;
81544;SDS011;70990;50.618;7.346;2024-03-06T05:45:34;4.85;;;1.50;;
81544;SDS011;70990;50.618;7.346;2024-03-06T05:48:18;4.20;;;1.63;;
81544;SDS011;70990;50.618;7.346;2024-03-06T05:51:03;4.43;;;1.48;;
81544;SDS011;70990;50.618;7.346;2024-03-06T05:53:47;4.65;;;1.70;;
81544;SDS011;70990;50.618;7.346;2024-03-06T05:56:30;5.03;;;1.75;;
81544;SDS011;70990;50.618;7.346;2024-03-06T05:59:14;4.75;;;1.67;;
81544;SDS011;70990;50.618;7.346;2024-03-06T06:01:41;2.78;;;1.15;;
81544;SDS011;70990;50.618;7.346;2024-03-06T06:04:08;8.15;;;1.90;;
81544;SDS011;70990;50.618;7.346;2024-03-06T06:06:35;5.90;;;1.70;;
81544;SDS011;70990;50.618;7.346;2024-03-06T06:09:01;5.15;;;1.80;;
81544;SDS011;70990;50.618;7.346;2024-03-06T06:11:28;5.28;;;1.83;;
81544;SDS011;70990;50.618;7.346;2024-03-06T06:13:55;4.18;;;1.52;;
81544;SDS011;70990;50.618;7.346;2024-03-06T06:16:21;5.55;;;1.77;;
81544;SDS011;70990;50.618;7.346;2024-03-06T06:18:48;7.22;;;1.67;;
81544;SDS011;70990;50.618;7.346;2024-03-06T06:21:14;8.57;;;2.30;;
81544;SDS011;70990;50.618;7.346;2024-03-06T06:23:41;9.38;;;3.17;;
81544;SDS011;70990;50.618;7.346;2024-03-06T06:26:08;8.52;;;3.10;;
81544;SDS011;70990;50.618;7.346;2024-03-06T06:28:36;7.03;;;2.30;;
81544;SDS011;70990;50.618;7.346;2024-03-06T06:31:03;8.05;;;1.90;;
81544;SDS011;70990;50.618;7.346;2024-03-06T06:33:30;3.90;;;1.88;;
81544;SDS011;70990;50.618;7.346;2024-03-06T06:35:57;3.95;;;1.80;;
81544;SDS011;70990;50.618;7.346;2024-03-06T06:38:33;12.73;;;6.25;;
81544;SDS011;70990;50.618;7.346;2024-03-06T06:40:59;15.40;;;6.80;;
81544;SDS011;70990;50.618;7.346;2024-03-06T06:43:26;18.80;;;8.27;;
81544;SDS011;70990;50.618;7.346;2024-03-06T06:45:52;18.25;;;8.20;;
81544;SDS011;70990;50.618;7.346;2024-03-06T06:48:20;6.63;;;3.28;;
81544;SDS011;70990;50.618;7.346;2024-03-06T06:50:46;4.65;;;1.77;;
81544;SDS011;70990;50.618;7.346;2024-03-06T06:53:13;6.10;;;2.13;;
81544;SDS011;70990;50.618;7.346;2024-03-06T06:55:40;8.63;;;2.75;;
81544;SDS011;70990;50.618;7.346;2024-03-06T06:58:06;7.28;;;2.92;;
81544;SDS011;70990;50.618;7.346;2024-03-06T07:00:33;8.32;;;3.08;;
81544;SDS011;70990;50.618;7.346;2024-03-06T07:03:00;8.52;;;3.40;;
81544;SDS011;70990;50.618;7.346;2024-03-06T07:05:26;8.82;;;3.63;;
81544;SDS011;70990;50.618;7.346;2024-03-06T07:07:53;8.38;;;3.78;;
81544;SDS011;70990;50.618;7.346;2024-03-06T07:10:20;8.90;;;3.45;;
81544;SDS011;70990;50.618;7.346;2024-03-06T07:12:47;10.75;;;4.25;;
81544;SDS011;70990;50.618;7.346;2024-03-06T07:15:14;15.25;;;7.25;;
81544;SDS011;70990;50.618;7.346;2024-03-06T07:17:40;11.75;;;5.30;;
81544;SDS011;70990;50.618;7.346;2024-03-06T07:20:07;12.65;;;5.50;;
81544;SDS011;70990;50.618;7.346;2024-03-06T07:22:34;12.88;;;5.40;;
81544;SDS011;70990;50.618;7.346;2024-03-06T07:25:01;12.35;;;4.55;;
81544;SDS011;70990;50.618;7.346;2024-03-06T07:27:28;7.78;;;3.58;;
81544;SDS011;70990;50.618;7.346;2024-03-06T07:29:54;7.55;;;3.35;;
81544;SDS011;70990;50.618;7.346;2024-03-06T07:32:21;7.13;;;2.97;;
81544;SDS011;70990;50.618;7.346;2024-03-06T07:34:47;6.47;;;2.30;;
81544;SDS011;70990;50.618;7.346;2024-03-06T07:37:14;6.50;;;2.60;;
81544;SDS011;70990;50.618;7.346;2024-03-06T07:39:40;5.15;;;1.80;;
81544;SDS011;70990;50.618;7.346;2024-03-06T07:42:07;5.13;;;2.30;;
81544;SDS011;70990;50.618;7.346;2024-03-06T07:44:33;6.72;;;2.80;;
81544;SDS011;70990;50.618;7.346;2024-03-06T07:47:00;8.48;;;3.97;;
81544;SDS011;70990;50.618;7.346;2024-03-06T07:49:26;5.45;;;2.28;;
81544;SDS011;70990;50.618;7.346;2024-03-06T07:51:53;10.25;;;1.98;;
81544;SDS011;70990;50.618;7.346;2024-03-06T07:54:19;40.28;;;3.63;;
81544;SDS011;70990;50.618;7.346;2024-03-06T07:56:48;96.32;;;6.72;;
81544;SDS011;70990;50.618;7.346;2024-03-06T07:59:14;112.70;;;8.10;;
81544;SDS011;70990;50.618;7.346;2024-03-06T08:01:41;34.60;;;3.50;;
81544;SDS011;70990;50.618;7.346;2024-03-06T08:04:07;15.80;;;2.60;;
81544;SDS011;70990;50.618;7.346;2024-03-06T08:06:34;14.90;;;2.40;;
81544;SDS011;70990;50.618;7.346;2024-03-06T08:09:00;12.02;;;2.00;;
81544;SDS011;70990;50.618;7.346;2024-03-06T08:11:29;22.48;;;2.40;;
81544;SDS011;70990;50.618;7.346;2024-03-06T08:13:58;41.30;;;4.00;;
81544;SDS011;70990;50.618;7.346;2024-03-06T08:16:27;11.23;;;2.58;;
81544;SDS011;70990;50.618;7.346;2024-03-06T08:18:55;28.73;;;3.67;;
81544;SDS011;70990;50.618;7.346;2024-03-06T08:21:21;29.13;;;4.10;;
81544;SDS011;70990;50.618;7.346;2024-03-06T08:23:48;46.88;;;3.95;;
81544;SDS011;70990;50.618;7.346;2024-03-06T08:26:14;18.63;;;3.55;;
81544;SDS011;70990;50.618;7.346;2024-03-06T08:28:41;22.80;;;3.03;;
81544;SDS011;70990;50.618;7.346;2024-03-06T08:31:08;43.50;;;3.88;;
81544;SDS011;70990;50.618;7.346;2024-03-06T08:33:34;11.70;;;2.13;;
81544;SDS011;70990;50.618;7.346;2024-03-06T08:36:01;39.05;;;3.67;;
81544;SDS011;70990;50.618;7.346;2024-03-06T08:38:27;8.25;;;2.53;;
81544;SDS011;70990;50.618;7.346;2024-03-06T08:40:54;12.02;;;2.50;;
81544;SDS011;70990;50.618;7.346;2024-03-06T08:43:20;14.05;;;2.47;;
81544;SDS011;70990;50.618;7.346;2024-03-06T08:45:47;9.32;;;2.15;;
81544;SDS011;70990;50.618;7.346;2024-03-06T08:48:13;6.20;;;2.80;;
81544;SDS011;70990;50.618;7.346;2024-03-06T08:50:40;5.30;;;2.08;;
81544;SDS011;70990;50.618;7.346;2024-03-06T08:53:07;9.15;;;3.25;;
81544;SDS011;70990;50.618;7.346;2024-03-06T08:55:33;6.38;;;2.55;;
81544;SDS011;70990;50.618;7.346;2024-03-06T08:58:00;6.10;;;2.58;;
81544;SDS011;70990;50.618;7.346;2024-03-06T09:00:27;6.30;;;2.63;;
81544;SDS011;70990;50.618;7.346;2024-03-06T09:02:53;6.07;;;2.45;;
81544;SDS011;70990;50.618;7.346;2024-03-06T09:05:20;6.10;;;2.38;;
81544;SDS011;70990;50.618;7.346;2024-03-06T09:07:47;5.82;;;2.13;;
81544;SDS011;70990;50.618;7.346;2024-03-06T09:10:14;7.00;;;2.40;;
81544;SDS011;70990;50.618;7.346;2024-03-06T09:12:40;6.13;;;2.50;;
81544;SDS011;70990;50.618;7.346;2024-03-06T09:15:07;6.38;;;2.40;;
81544;SDS011;70990;50.618;7.346;2024-03-06T09:17:34;6.55;;;2.20;;
81544;SDS011;70990;50.618;7.346;2024-03-06T09:20:00;5.68;;;2.00;;
81544;SDS011;70990;50.618;7.346;2024-03-06T09:22:44;5.78;;;2.53;;
81544;SDS011;70990;50.618;7.346;2024-03-06T09:25:11;6.95;;;2.58;;
81544;SDS011;70990;50.618;7.346;2024-03-06T09:27:37;5.80;;;2.53;;
81544;SDS011;70990;50.618;7.346;2024-03-06T09:30:04;4.68;;;2.20;;
81544;SDS011;70990;50.618;7.346;2024-03-06T09:32:31;5.38;;;2.45;;
81544;SDS011;70990;50.618;7.346;2024-03-06T09:34:59;7.43;;;3.00;;
81544;SDS011;70990;50.618;7.346;2024-03-06T09:37:26;6.32;;;2.70;;
81544;SDS011;70990;50.618;7.346;2024-03-06T09:39:52;7.25;;;2.95;;
81544;SDS011;70990;50.618;7.346;2024-03-06T09:42:19;6.45;;;2.80;;
81544;SDS011;70990;50.618;7.346;2024-03-06T09:44:45;5.93;;;2.60;;
81544;SDS011;70990;50.618;7.346;2024-03-06T09:47:13;5.88;;;2.38;;
81544;SDS011;70990;50.618;7.346;2024-03-06T09:49:40;6.45;;;2.65;;
81544;SDS011;70990;50.618;7.346;2024-03-06T09:52:07;6.75;;;3.00;;
81544;SDS011;70990;50.618;7.346;2024-03-06T09:54:34;6.70;;;2.92;;
81544;SDS011;70990;50.618;7.346;2024-03-06T09:57:00;8.80;;;3.55;;
81544;SDS011;70990;50.618;7.346;2024-03-06T09:59:27;9.20;;;3.35;;
81544;SDS011;70990;50.618;7.346;2024-03-06T10:01:54;9.50;;;3.58;;
81544;SDS011;70990;50.618;7.346;2024-03-06T10:06:50;6.18;;;2.90;;
81544;SDS011;70990;50.618;7.346;2024-03-06T10:09:21;7.97;;;3.90;;
81544;SDS011;70990;50.618;7.346;2024-03-06T10:11:48;8.18;;;3.92;;
81544;SDS011;70990;50.618;7.346;2024-03-06T10:14:15;8.75;;;4.60;;
81544;SDS011;70990;50.618;7.346;2024-03-06T10:16:51;8.48;;;4.13;;
81544;SDS011;70990;50.618;7.346;2024-03-06T10:19:26;9.13;;;4.15;;
81544;SDS011;70990;50.618;7.346;2024-03-06T10:21:54;10.20;;;4.00;;
81544;SDS011;70990;50.618;7.346;2024-03-06T10:24:22;11.75;;;4.45;;
81544;SDS011;70990;50.618;7.346;2024-03-06T10:26:50;9.45;;;4.10;;
81544;SDS011;70990;50.618;7.346;2024-03-06T10:29:18;9.25;;;3.97;;
81544;SDS011;70990;50.618;7.346;2024-03-06T10:31:48;9.35;;;4.45;;
81544;SDS011;70990;50.618;7.346;2024-03-06T10:34:16;9.73;;;4.65;;
81544;SDS011;70990;50.618;7.346;2024-03-06T10:36:43;9.80;;;4.43;;
81544;SDS011;70990;50.618;7.346;2024-03-06T10:39:10;11.25;;;4.63;;
81544;SDS011;70990;50.618;7.346;2024-03-06T10:41:38;9.25;;;4.65;;
81544;SDS011;70990;50.618;7.346;2024-03-06T10:44:07;24.30;;;6.10;;
81544;SDS011;70990;50.618;7.346;2024-03-06T10:46:38;13.60;;;5.13;;
81544;SDS011;70990;50.618;7.346;2024-03-06T10:49:09;10.63;;;5.07;;
81544;SDS011;70990;50.618;7.346;2024-03-06T10:51:37;10.20;;;4.75;;
81544;SDS011;70990;50.618;7.346;2024-03-06T10:54:07;11.55;;;4.43;;
81544;SDS011;70990;50.618;7.346;2024-03-06T10:56:34;11.65;;;4.53;;
81544;SDS011;70990;50.618;7.346;2024-03-06T10:59:01;8.48;;;4.25;;
81544;SDS011;70990;50.618;7.346;2024-03-06T11:01:28;18.30;;;5.07;;
81544;SDS011;70990;50.618;7.346;2024-03-06T11:03:57;10.52;;;4.75;;
81544;SDS011;70990;50.618;7.346;2024-03-06T11:06:26;9.23;;;4.65;;
81544;SDS011;70990;50.618;7.346;2024-03-06T11:08:53;9.30;;;4.38;;
81544;SDS011;70990;50.618;7.346;2024-03-06T11:11:20;8.07;;;4.30;;
81544;SDS011;70990;50.618;7.346;2024-03-06T11:13:49;8.30;;;4.22;;
81544;SDS011;70990;50.618;7.346;2024-03-06T11:16:17;10.25;;;4.05;;
81544;SDS011;70990;50.618;7.346;2024-03-06T11:18:44;8.05;;;3.35;;
81544;SDS011;70990;50.618;7.346;2024-03-06T11:24:11;9.95;;;4.53;;
81544;SDS011;70990;50.618;7.346;2024-03-06T11:26:43;8.90;;;4.28;;
81544;SDS011;70990;50.618;7.346;2024-03-06T11:29:13;11.20;;;4.75;;
81544;SDS011;70990;50.618;7.346;2024-03-06T11:31:55;12.77;;;5.28;;
81544;SDS011;70990;50.618;7.346;2024-03-06T11:34:26;10.38;;;3.95;;
81544;SDS011;70990;50.618;7.346;2024-03-06T11:36:53;10.85;;;5.15;;
81544;SDS011;70990;50.618;7.346;2024-03-06T11:39:22;11.65;;;5.03;;
81544;SDS011;70990;50.618;7.346;2024-03-06T11:41:49;11.98;;;5.35;;
81544;SDS011;70990;50.618;7.346;2024-03-06T11:44:17;10.90;;;5.78;;
81544;SDS011;70990;50.618;7.346;2024-03-06T11:46:49;11.25;;;5.68;;
81544;SDS011;70990;50.618;7.346;2024-03-06T11:49:24;11.48;;;5.68;;
81544;SDS011;70990;50.618;7.346;2024-03-06T11:51:52;10.20;;;4.85;;
81544;SDS011;70990;50.618;7.346;2024-03-06T11:54:19;8.98;;;4.65;;
81544;SDS011;70990;50.618;7.346;2024-03-06T11:56:45;9.20;;;4.47;;
81544;SDS011;70990;50.618;7.346;2024-03-06T11:59:12;10.90;;;5.15;;
81544;SDS011;70990;50.618;7.346;2024-03-06T12:01:40;9.43;;;4.50;;
81544;SDS011;70990;50.618;7.346;2024-03-06T12:04:09;10.27;;;4.85;;
81544;SDS011;70990;50.618;7.346;2024-03-06T12:06:36;12.70;;;4.93;;
81544;SDS011;70990;50.618;7.346;2024-03-06T12:09:03;9.70;;;4.72;;
81544;SDS011;70990;50.618;7.346;2024-03-06T12:11:29;13.55;;;4.90;;
81544;SDS011;70990;50.618;7.346;2024-03-06T12:13:56;9.77;;;5.28;;
81544;SDS011;70990;50.618;7.346;2024-03-06T12:16:23;11.27;;;5.35;;
81544;SDS011;70990;50.618;7.346;2024-03-06T12:18:59;8.90;;;4.43;;
81544;SDS011;70990;50.618;7.346;2024-03-06T12:24:07;9.23;;;4.88;;
81544;SDS011;70990;50.618;7.346;2024-03-06T12:26:35;10.90;;;4.80;;
81544;SDS011;70990;50.618;7.346;2024-03-06T12:29:04;8.40;;;4.50;;
81544;SDS011;70990;50.618;7.346;2024-03-06T12:31:34;8.48;;;4.35;;
81544;SDS011;70990;50.618;7.346;2024-03-06T12:34:02;8.90;;;4.38;;
81544;SDS011;70990;50.618;7.346;2024-03-06T12:36:31;11.00;;;4.28;;
81544;SDS011;70990;50.618;7.346;2024-03-06T12:38:58;9.07;;;4.28;;
81544;SDS011;70990;50.618;7.346;2024-03-06T12:41:26;8.18;;;4.00;;
81544;SDS011;70990;50.618;7.346;2024-03-06T12:43:53;6.80;;;3.67;;
81544;SDS011;70990;50.618;7.346;2024-03-06T12:46:20;11.02;;;3.75;;
81544;SDS011;70990;50.618;7.346;2024-03-06T12:48:47;8.32;;;3.58;;
81544;SDS011;70990;50.618;7.346;2024-03-06T12:51:14;8.82;;;3.22;;
81544;SDS011;70990;50.618;7.346;2024-03-06T12:53:41;8.48;;;3.42;;
81544;SDS011;70990;50.618;7.346;2024-03-06T12:56:08;8.15;;;2.97;;
81544;SDS011;70990;50.618;7.346;2024-03-06T12:58:34;7.13;;;2.72;;
81544;SDS011;70990;50.618;7.346;2024-03-06T13:01:01;6.57;;;2.70;;
81544;SDS011;70990;50.618;7.346;2024-03-06T13:03:28;5.50;;;2.30;;
81544;SDS011;70990;50.618;7.346;2024-03-06T13:05:54;10.23;;;4.93;;
81544;SDS011;70990;50.618;7.346;2024-03-06T13:08:21;5.80;;;2.80;;
81544;SDS011;70990;50.618;7.346;2024-03-06T13:10:47;10.55;;;3.10;;
81544;SDS011;70990;50.618;7.346;2024-03-06T13:13:14;4.88;;;1.92;;
81544;SDS011;70990;50.618;7.346;2024-03-06T13:15:40;7.07;;;2.88;;
81544;SDS011;70990;50.618;7.346;2024-03-06T13:18:07;6.50;;;2.47;;
81544;SDS011;70990;50.618;7.346;2024-03-06T13:20:34;6.70;;;2.33;;
81544;SDS011;70990;50.618;7.346;2024-03-06T13:23:00;5.68;;;2.42;;
81544;SDS011;70990;50.618;7.346;2024-03-06T13:25:27;6.13;;;2.33;;
81544;SDS011;70990;50.618;7.346;2024-03-06T13:27:54;5.63;;;2.25;;
81544;SDS011;70990;50.618;7.346;2024-03-06T13:30:20;6.65;;;2.65;;
81544;SDS011;70990;50.618;7.346;2024-03-06T13:32:47;6.45;;;2.67;;
81544;SDS011;70990;50.618;7.346;2024-03-06T13:35:14;7.18;;;2.38;;
81544;SDS011;70990;50.618;7.346;2024-03-06T13:37:40;5.13;;;2.17;;
81544;SDS011;70990;50.618;7.346;2024-03-06T13:40:07;7.53;;;3.03;;
81544;SDS011;70990;50.618;7.346;2024-03-06T13:42:35;6.30;;;2.53;;
81544;SDS011;70990;50.618;7.346;2024-03-06T13:45:02;6.53;;;2.70;;
81544;SDS011;70990;50.618;7.346;2024-03-06T13:47:29;5.68;;;2.42;;
81544;SDS011;70990;50.618;7.346;2024-03-06T13:49:57;6.03;;;2.50;;
81544;SDS011;70990;50.618;7.346;2024-03-06T13:52:24;6.65;;;2.50;;
81544;SDS011;70990;50.618;7.346;2024-03-06T13:54:51;5.78;;;2.33;;
81544;SDS011;70990;50.618;7.346;2024-03-06T13:57:17;5.22;;;2.42;;
81544;SDS011;70990;50.618;7.346;2024-03-06T13:59:44;7.22;;;2.63;;
81544;SDS011;70990;50.618;7.346;2024-03-06T14:02:10;7.50;;;2.70;;
81544;SDS011;70990;50.618;7.346;2024-03-06T14:04:37;5.13;;;2.10;;
81544;SDS011;70990;50.618;7.346;2024-03-06T14:07:03;7.15;;;2.67;;
81544;SDS011;70990;50.618;7.346;2024-03-06T14:09:30;5.60;;;1.92;;
81544;SDS011;70990;50.618;7.346;2024-03-06T14:11:57;8.05;;;2.22;;
81544;SDS011;70990;50.618;7.346;2024-03-06T14:14:24;6.80;;;2.17;;
81544;SDS011;70990;50.618;7.346;2024-03-06T14:16:51;5.13;;;1.83;;
81544;SDS011;70990;50.618;7.346;2024-03-06T14:19:18;5.35;;;1.90;;
81544;SDS011;70990;50.618;7.346;2024-03-06T14:21:44;6.43;;;2.03;;
81544;SDS011;70990;50.618;7.346;2024-03-06T14:24:11;7.57;;;2.42;;
81544;SDS011;70990;50.618;7.346;2024-03-06T14:26:37;6.03;;;2.28;;
81544;SDS011;70990;50.618;7.346;2024-03-06T14:29:05;5.82;;;2.10;;
81544;SDS011;70990;50.618;7.346;2024-03-06T14:31:33;5.78;;;2.10;;
81544;SDS011;70990;50.618;7.346;2024-03-06T14:33:59;4.60;;;1.92;;
81544;SDS011;70990;50.618;7.346;2024-03-06T14:36:31;5.15;;;2.17;;
81544;SDS011;70990;50.618;7.346;2024-03-06T14:38:58;6.00;;;2.47;;
81544;SDS011;70990;50.618;7.346;2024-03-06T14:41:24;6.95;;;2.55;;
81544;SDS011;70990;50.618;7.346;2024-03-06T14:43:51;7.95;;;2.60;;
81544;SDS011;70990;50.618;7.346;2024-03-06T14:46:18;6.53;;;2.47;;
81544;SDS011;70990;50.618;7.346;2024-03-06T14:48:45;7.25;;;3.08;;
81544;SDS011;70990;50.618;7.346;2024-03-06T14:51:12;4.70;;;2.15;;
81544;SDS011;70990;50.618;7.346;2024-03-06T14:53:39;3.83;;;1.58;;
81544;SDS011;70990;50.618;7.346;2024-03-06T14:56:05;5.28;;;1.88;;